sensor_id;sensor_type;location;lat;lon;timestamp;P1;durP1;ratioP1;P2;durP2;ratioP2
83094;SDS011;72967;43.674;6.976;2024-01-30T00:01:48;3.17;;;2.03;;
83094;SDS011;72967;43.674;6.976;2024-01-30T00:04:13;4.45;;;2.45;;
83094;SDS011;72967;43.674;6.976;2024-01-30T00:06:38;3.80;;;2.57;;
83094;SDS011;72967;43.674;6.976;2024-01-30T00:09:04;2.50;;;2.28;;
83094;SDS011;72967;43.674;6.976;2024-01-30T00:11:30;3.83;;;2.53;;
83094;SDS011;72967;43.674;6.976;2024-01-30T00:13:55;3.88;;;2.33;;
83094;SDS011;72967;43.674;6.976;2024-01-30T00:16:24;5.35;;;2.45;;
83094;SDS011;72967;43.674;6.976;2024-01-30T00:18:50;4.80;;;2.88;;
83094;SDS011;72967;43.674;6.976;2024-01-30T00:21:16;3.95;;;2.50;;
83094;SDS011;72967;43.674;6.976;2024-01-30T00:23:42;4.55;;;2.58;;
83094;SDS011;72967;43.674;6.976;2024-01-30T00:26:08;3.60;;;2.25;;
83094;SDS011;72967;43.674;6.976;2024-01-30T00:28:34;4.40;;;2.58;;
83094;SDS011;72967;43.674;6.976;2024-01-30T00:30:59;4.90;;;2.43;;
83094;SDS011;72967;43.674;6.976;2024-01-30T00:33:24;4.60;;;2.40;;
83094;SDS011;72967;43.674;6.976;2024-01-30T00:35:50;5.80;;;2.85;;
83094;SDS011;72967;43.674;6.976;2024-01-30T00:38:15;3.40;;;2.45;;
83094;SDS011;72967;43.674;6.976;2024-01-30T00:40:40;4.85;;;3.20;;
83094;SDS011;72967;43.674;6.976;2024-01-30T00:43:06;3.88;;;2.20;;
83094;SDS011;72967;43.674;6.976;2024-01-30T00:45:31;3.83;;;2.60;;
83094;SDS011;72967;43.674;6.976;2024-01-30T00:47:57;4.10;;;2.30;;
83094;SDS011;72967;43.674;6.976;2024-01-30T00:50:22;3.53;;;2.60;;
83094;SDS011;72967;43.674;6.976;2024-01-30T00:52:47;4.00;;;2.60;;
83094;SDS011;72967;43.674;6.976;2024-01-30T00:55:13;3.08;;;2.50;;
83094;SDS011;72967;43.674;6.976;2024-01-30T00:57:39;2.15;;;1.95;;
83094;SDS011;72967;43.674;6.976;2024-01-30T01:00:05;3.25;;;2.25;;
83094;SDS011;72967;43.674;6.976;2024-01-30T01:02:33;3.20;;;2.42;;
83094;SDS011;72967;43.674;6.976;2024-01-30T01:04:59;3.15;;;2.25;;
83094;SDS011;72967;43.674;6.976;2024-01-30T01:07:25;2.55;;;1.98;;
83094;SDS011;72967;43.674;6.976;2024-01-30T01:09:50;4.38;;;2.97;;
83094;SDS011;72967;43.674;6.976;2024-01-30T01:12:15;3.28;;;2.28;;
83094;SDS011;72967;43.674;6.976;2024-01-30T01:14:41;3.03;;;1.92;;
83094;SDS011;72967;43.674;6.976;2024-01-30T01:17:09;3.70;;;2.60;;
83094;SDS011;72967;43.674;6.976;2024-01-30T01:19:35;3.65;;;2.60;;
83094;SDS011;72967;43.674;6.976;2024-01-30T01:22:00;3.92;;;2.20;;
83094;SDS011;72967;43.674;6.976;2024-01-30T01:24:26;4.47;;;2.47;;
83094;SDS011;72967;43.674;6.976;2024-01-30T01:26:51;4.10;;;2.45;;
83094;SDS011;72967;43.674;6.976;2024-01-30T01:29:16;3.83;;;2.30;;
83094;SDS011;72967;43.674;6.976;2024-01-30T01:31:42;2.78;;;2.15;;
83094;SDS011;72967;43.674;6.976;2024-01-30T01:34:11;3.38;;;2.08;;
83094;SDS011;72967;43.674;6.976;2024-01-30T01:36:36;4.88;;;2.30;;
83094;SDS011;72967;43.674;6.976;2024-01-30T01:39:02;4.10;;;2.67;;
83094;SDS011;72967;43.674;6.976;2024-01-30T01:41:31;3.80;;;2.40;;
83094;SDS011;72967;43.674;6.976;2024-01-30T01:43:57;4.25;;;2.90;;
83094;SDS011;72967;43.674;6.976;2024-01-30T01:46:23;3.42;;;2.22;;
83094;SDS011;72967;43.674;6.976;2024-01-30T01:48:49;3.65;;;2.35;;
83094;SDS011;72967;43.674;6.976;2024-01-30T01:51:14;6.55;;;2.85;;
83094;SDS011;72967;43.674;6.976;2024-01-30T01:53:40;3.28;;;2.53;;
83094;SDS011;72967;43.674;6.976;2024-01-30T01:56:06;4.07;;;2.47;;
83094;SDS011;72967;43.674;6.976;2024-01-30T01:58:32;3.20;;;2.22;;
83094;SDS011;72967;43.674;6.976;2024-01-30T02:00:58;4.28;;;3.15;;
83094;SDS011;72967;43.674;6.976;2024-01-30T02:03:24;3.70;;;2.53;;
83094;SDS011;72967;43.674;6.976;2024-01-30T02:05:50;6.68;;;2.90;;
83094;SDS011;72967;43.674;6.976;2024-01-30T02:08:16;4.63;;;2.45;;
83094;SDS011;72967;43.674;6.976;2024-01-30T02:10:42;4.88;;;2.42;;
83094;SDS011;72967;43.674;6.976;2024-01-30T02:13:07;4.35;;;2.42;;
83094;SDS011;72967;43.674;6.976;2024-01-30T02:15:33;2.75;;;2.47;;
83094;SDS011;72967;43.674;6.976;2024-01-30T02:17:58;2.85;;;2.28;;
83094;SDS011;72967;43.674;6.976;2024-01-30T02:20:24;3.40;;;2.35;;
83094;SDS011;72967;43.674;6.976;2024-01-30T02:22:51;3.53;;;2.03;;
83094;SDS011;72967;43.674;6.976;2024-01-30T02:25:17;5.63;;;2.30;;
83094;SDS011;72967;43.674;6.976;2024-01-30T02:27:43;2.63;;;2.07;;
83094;SDS011;72967;43.674;6.976;2024-01-30T02:30:08;4.03;;;2.40;;
83094;SDS011;72967;43.674;6.976;2024-01-30T02:32:34;2.47;;;2.17;;
83094;SDS011;72967;43.674;6.976;2024-01-30T02:34:59;2.63;;;2.05;;
83094;SDS011;72967;43.674;6.976;2024-01-30T02:37:25;3.33;;;2.17;;
83094;SDS011;72967;43.674;6.976;2024-01-30T02:39:50;3.00;;;2.50;;
83094;SDS011;72967;43.674;6.976;2024-01-30T02:42:15;3.15;;;2.00;;
83094;SDS011;72967;43.674;6.976;2024-01-30T02:44:41;3.80;;;2.75;;
83094;SDS011;72967;43.674;6.976;2024-01-30T02:47:06;3.30;;;2.40;;
83094;SDS011;72967;43.674;6.976;2024-01-30T02:49:31;3.85;;;2.33;;
83094;SDS011;72967;43.674;6.976;2024-01-30T02:51:57;3.63;;;1.95;;
83094;SDS011;72967;43.674;6.976;2024-01-30T02:54:22;3.17;;;2.20;;
83094;SDS011;72967;43.674;6.976;2024-01-30T02:56:48;2.55;;;2.03;;
83094;SDS011;72967;43.674;6.976;2024-01-30T02:59:13;3.72;;;2.22;;
83094;SDS011;72967;43.674;6.976;2024-01-30T03:01:44;4.60;;;3.17;;
83094;SDS011;72967;43.674;6.976;2024-01-30T03:04:10;3.13;;;2.58;;
83094;SDS011;72967;43.674;6.976;2024-01-30T03:06:36;2.90;;;2.10;;
83094;SDS011;72967;43.674;6.976;2024-01-30T03:09:01;2.50;;;2.08;;
83094;SDS011;72967;43.674;6.976;2024-01-30T03:11:28;3.70;;;2.40;;
83094;SDS011;72967;43.674;6.976;2024-01-30T03:13:53;2.78;;;1.90;;
83094;SDS011;72967;43.674;6.976;2024-01-30T03:16:18;2.93;;;2.23;;
83094;SDS011;72967;43.674;6.976;2024-01-30T03:18:44;3.83;;;2.25;;
83094;SDS011;72967;43.674;6.976;2024-01-30T03:21:09;3.40;;;2.08;;
83094;SDS011;72967;43.674;6.976;2024-01-30T03:23:35;3.20;;;2.22;;
83094;SDS011;72967;43.674;6.976;2024-01-30T03:26:00;2.50;;;2.10;;
83094;SDS011;72967;43.674;6.976;2024-01-30T03:28:25;3.08;;;2.13;;
83094;SDS011;72967;43.674;6.976;2024-01-30T03:30:51;4.40;;;2.97;;
83094;SDS011;72967;43.674;6.976;2024-01-30T03:33:16;4.10;;;2.50;;
83094;SDS011;72967;43.674;6.976;2024-01-30T03:35:42;2.83;;;2.15;;
83094;SDS011;72967;43.674;6.976;2024-01-30T03:38:07;2.40;;;1.70;;
83094;SDS011;72967;43.674;6.976;2024-01-30T03:40:33;2.72;;;2.03;;
83094;SDS011;72967;43.674;6.976;2024-01-30T03:42:58;3.03;;;1.92;;
83094;SDS011;72967;43.674;6.976;2024-01-30T03:45:24;3.75;;;2.40;;
83094;SDS011;72967;43.674;6.976;2024-01-30T03:47:49;2.63;;;1.92;;
83094;SDS011;72967;43.674;6.976;2024-01-30T03:50:15;4.68;;;2.50;;
83094;SDS011;72967;43.674;6.976;2024-01-30T03:52:40;3.17;;;1.85;;
83094;SDS011;72967;43.674;6.976;2024-01-30T03:55:05;4.53;;;1.90;;
83094;SDS011;72967;43.674;6.976;2024-01-30T03:57:31;4.13;;;2.15;;
83094;SDS011;72967;43.674;6.976;2024-01-30T03:59:56;2.28;;;1.70;;
83094;SDS011;72967;43.674;6.976;2024-01-30T04:02:22;3.00;;;1.88;;
83094;SDS011;72967;43.674;6.976;2024-01-30T04:04:49;4.78;;;2.20;;
83094;SDS011;72967;43.674;6.976;2024-01-30T04:07:15;2.83;;;2.60;;
83094;SDS011;72967;43.674;6.976;2024-01-30T04:09:40;2.33;;;1.92;;
83094;SDS011;72967;43.674;6.976;2024-01-30T04:12:06;4.35;;;2.22;;
83094;SDS011;72967;43.674;6.976;2024-01-30T04:14:31;3.58;;;2.22;;
83094;SDS011;72967;43.674;6.976;2024-01-30T04:16:57;3.60;;;2.08;;
83094;SDS011;72967;43.674;6.976;2024-01-30T04:19:22;2.78;;;2.10;;
83094;SDS011;72967;43.674;6.976;2024-01-30T04:21:47;2.60;;;1.88;;
83094;SDS011;72967;43.674;6.976;2024-01-30T04:24:13;4.05;;;2.08;;
83094;SDS011;72967;43.674;6.976;2024-01-30T04:26:38;4.03;;;1.83;;
83094;SDS011;72967;43.674;6.976;2024-01-30T04:29:04;7.47;;;2.03;;
83094;SDS011;72967;43.674;6.976;2024-01-30T04:31:29;4.50;;;2.72;;
83094;SDS011;72967;43.674;6.976;2024-01-30T04:33:54;2.88;;;2.38;;
83094;SDS011;72967;43.674;6.976;2024-01-30T04:36:20;4.43;;;2.40;;
83094;SDS011;72967;43.674;6.976;2024-01-30T04:38:45;3.65;;;2.08;;
83094;SDS011;72967;43.674;6.976;2024-01-30T04:41:11;4.38;;;1.90;;
83094;SDS011;72967;43.674;6.976;2024-01-30T04:43:36;3.85;;;2.65;;
83094;SDS011;72967;43.674;6.976;2024-01-30T04:46:01;2.28;;;1.60;;
83094;SDS011;72967;43.674;6.976;2024-01-30T04:48:27;2.72;;;2.10;;
83094;SDS011;72967;43.674;6.976;2024-01-30T04:50:52;2.88;;;2.28;;
83094;SDS011;72967;43.674;6.976;2024-01-30T04:53:18;6.32;;;2.53;;
83094;SDS011;72967;43.674;6.976;2024-01-30T04:55:44;3.70;;;2.00;;
83094;SDS011;72967;43.674;6.976;2024-01-30T04:58:09;2.58;;;2.20;;
83094;SDS011;72967;43.674;6.976;2024-01-30T05:00:35;2.53;;;1.83;;
83094;SDS011;72967;43.674;6.976;2024-01-30T05:03:00;4.65;;;2.15;;
83094;SDS011;72967;43.674;6.976;2024-01-30T05:05:25;2.97;;;1.83;;
83094;SDS011;72967;43.674;6.976;2024-01-30T05:07:51;2.58;;;2.15;;
83094;SDS011;72967;43.674;6.976;2024-01-30T05:10:16;5.20;;;2.47;;
83094;SDS011;72967;43.674;6.976;2024-01-30T05:12:41;3.53;;;2.30;;
83094;SDS011;72967;43.674;6.976;2024-01-30T05:15:07;4.15;;;2.42;;
83094;SDS011;72967;43.674;6.976;2024-01-30T05:17:33;3.42;;;1.88;;
83094;SDS011;72967;43.674;6.976;2024-01-30T05:19:58;3.75;;;2.17;;
83094;SDS011;72967;43.674;6.976;2024-01-30T05:22:24;2.40;;;1.80;;
83094;SDS011;72967;43.674;6.976;2024-01-30T05:24:49;3.47;;;2.15;;
83094;SDS011;72967;43.674;6.976;2024-01-30T05:27:14;3.80;;;2.22;;
83094;SDS011;72967;43.674;6.976;2024-01-30T05:29:40;3.25;;;2.45;;
83094;SDS011;72967;43.674;6.976;2024-01-30T05:32:09;3.75;;;2.20;;
83094;SDS011;72967;43.674;6.976;2024-01-30T05:34:35;4.25;;;2.78;;
83094;SDS011;72967;43.674;6.976;2024-01-30T05:37:01;5.15;;;2.92;;
83094;SDS011;72967;43.674;6.976;2024-01-30T05:39:26;4.90;;;2.53;;
83094;SDS011;72967;43.674;6.976;2024-01-30T05:41:52;5.10;;;2.53;;
83094;SDS011;72967;43.674;6.976;2024-01-30T05:44:17;2.60;;;2.40;;
83094;SDS011;72967;43.674;6.976;2024-01-30T05:46:43;5.00;;;2.67;;
83094;SDS011;72967;43.674;6.976;2024-01-30T05:49:08;3.33;;;2.30;;
83094;SDS011;72967;43.674;6.976;2024-01-30T05:51:33;3.10;;;2.60;;
83094;SDS011;72967;43.674;6.976;2024-01-30T05:53:59;5.82;;;2.88;;
83094;SDS011;72967;43.674;6.976;2024-01-30T05:56:24;2.92;;;2.22;;
83094;SDS011;72967;43.674;6.976;2024-01-30T05:58:50;6.85;;;3.25;;
83094;SDS011;72967;43.674;6.976;2024-01-30T06:01:16;6.50;;;3.28;;
83094;SDS011;72967;43.674;6.976;2024-01-30T06:03:41;7.05;;;3.60;;
83094;SDS011;72967;43.674;6.976;2024-01-30T06:06:08;6.80;;;3.50;;
83094;SDS011;72967;43.674;6.976;2024-01-30T06:08:34;8.13;;;4.78;;
83094;SDS011;72967;43.674;6.976;2024-01-30T06:10:59;9.63;;;4.75;;
83094;SDS011;72967;43.674;6.976;2024-01-30T06:13:25;6.25;;;3.13;;
83094;SDS011;72967;43.674;6.976;2024-01-30T06:15:51;8.25;;;3.00;;
83094;SDS011;72967;43.674;6.976;2024-01-30T06:18:16;6.35;;;3.78;;
83094;SDS011;72967;43.674;6.976;2024-01-30T06:20:42;8.65;;;4.00;;
83094;SDS011;72967;43.674;6.976;2024-01-30T06:23:07;5.50;;;3.35;;
83094;SDS011;72967;43.674;6.976;2024-01-30T06:25:33;7.93;;;3.83;;
83094;SDS011;72967;43.674;6.976;2024-01-30T06:27:58;5.05;;;3.30;;
83094;SDS011;72967;43.674;6.976;2024-01-30T06:30:23;7.68;;;3.55;;
83094;SDS011;72967;43.674;6.976;2024-01-30T06:32:49;6.25;;;3.95;;
83094;SDS011;72967;43.674;6.976;2024-01-30T06:35:14;6.47;;;3.42;;
83094;SDS011;72967;43.674;6.976;2024-01-30T06:37:40;5.30;;;3.78;;
83094;SDS011;72967;43.674;6.976;2024-01-30T06:40:05;4.35;;;3.10;;
83094;SDS011;72967;43.674;6.976;2024-01-30T06:42:31;6.20;;;2.75;;
83094;SDS011;72967;43.674;6.976;2024-01-30T06:44:57;6.13;;;2.28;;
83094;SDS011;72967;43.674;6.976;2024-01-30T06:47:22;4.72;;;2.58;;
83094;SDS011;72967;43.674;6.976;2024-01-30T06:49:48;8.65;;;3.38;;
83094;SDS011;72967;43.674;6.976;2024-01-30T06:52:13;5.45;;;2.80;;
83094;SDS011;72967;43.674;6.976;2024-01-30T06:54:39;3.47;;;2.83;;
83094;SDS011;72967;43.674;6.976;2024-01-30T06:57:04;4.93;;;2.67;;
83094;SDS011;72967;43.674;6.976;2024-01-30T06:59:34;7.28;;;3.33;;
83094;SDS011;72967;43.674;6.976;2024-01-30T07:01:59;3.97;;;3.35;;
83094;SDS011;72967;43.674;6.976;2024-01-30T07:04:25;8.00;;;3.05;;
83094;SDS011;72967;43.674;6.976;2024-01-30T07:06:50;10.38;;;3.50;;
83094;SDS011;72967;43.674;6.976;2024-01-30T07:09:15;6.95;;;3.63;;
83094;SDS011;72967;43.674;6.976;2024-01-30T07:11:41;6.03;;;2.95;;
83094;SDS011;72967;43.674;6.976;2024-01-30T07:14:07;9.82;;;3.40;;
83094;SDS011;72967;43.674;6.976;2024-01-30T07:16:34;6.63;;;3.65;;
83094;SDS011;72967;43.674;6.976;2024-01-30T07:18:59;7.72;;;3.30;;
83094;SDS011;72967;43.674;6.976;2024-01-30T07:21:24;5.90;;;3.42;;
83094;SDS011;72967;43.674;6.976;2024-01-30T07:23:56;7.22;;;3.65;;
83094;SDS011;72967;43.674;6.976;2024-01-30T07:26:22;6.40;;;3.38;;
83094;SDS011;72967;43.674;6.976;2024-01-30T07:28:47;6.85;;;3.70;;
83094;SDS011;72967;43.674;6.976;2024-01-30T07:31:12;13.63;;;4.45;;
83094;SDS011;72967;43.674;6.976;2024-01-30T07:33:38;6.78;;;4.05;;
83094;SDS011;72967;43.674;6.976;2024-01-30T07:36:03;7.82;;;4.07;;
83094;SDS011;72967;43.674;6.976;2024-01-30T07:38:31;13.82;;;4.32;;
83094;SDS011;72967;43.674;6.976;2024-01-30T07:40:57;9.30;;;4.10;;
83094;SDS011;72967;43.674;6.976;2024-01-30T07:43:22;9.07;;;3.55;;
83094;SDS011;72967;43.674;6.976;2024-01-30T07:45:48;13.18;;;4.78;;
83094;SDS011;72967;43.674;6.976;2024-01-30T07:48:13;8.05;;;3.47;;
83094;SDS011;72967;43.674;6.976;2024-01-30T07:50:39;8.40;;;3.50;;
83094;SDS011;72967;43.674;6.976;2024-01-30T07:53:04;5.05;;;3.38;;
83094;SDS011;72967;43.674;6.976;2024-01-30T07:58:31;6.15;;;3.47;;
83094;SDS011;72967;43.674;6.976;2024-01-30T08:00:57;9.65;;;4.35;;
83094;SDS011;72967;43.674;6.976;2024-01-30T08:03:23;6.03;;;3.45;;
83094;SDS011;72967;43.674;6.976;2024-01-30T08:05:49;7.50;;;4.15;;
83094;SDS011;72967;43.674;6.976;2024-01-30T08:08:14;11.93;;;4.07;;
83094;SDS011;72967;43.674;6.976;2024-01-30T08:10:40;4.10;;;2.85;;
83094;SDS011;72967;43.674;6.976;2024-01-30T08:13:05;4.47;;;3.22;;
83094;SDS011;72967;43.674;6.976;2024-01-30T08:15:31;5.00;;;2.60;;
83094;SDS011;72967;43.674;6.976;2024-01-30T08:17:56;3.85;;;2.88;;
83094;SDS011;72967;43.674;6.976;2024-01-30T08:20:24;3.95;;;2.70;;
83094;SDS011;72967;43.674;6.976;2024-01-30T08:22:50;6.35;;;2.85;;
83094;SDS011;72967;43.674;6.976;2024-01-30T08:25:16;6.50;;;2.80;;
83094;SDS011;72967;43.674;6.976;2024-01-30T08:27:41;5.25;;;3.15;;
83094;SDS011;72967;43.674;6.976;2024-01-30T08:30:07;3.33;;;2.70;;
83094;SDS011;72967;43.674;6.976;2024-01-30T08:32:32;4.13;;;2.92;;
83094;SDS011;72967;43.674;6.976;2024-01-30T08:34:58;6.28;;;3.22;;
83094;SDS011;72967;43.674;6.976;2024-01-30T08:37:24;5.85;;;3.20;;
83094;SDS011;72967;43.674;6.976;2024-01-30T08:39:49;8.20;;;4.10;;
83094;SDS011;72967;43.674;6.976;2024-01-30T08:42:15;6.72;;;3.25;;
83094;SDS011;72967;43.674;6.976;2024-01-30T08:44:43;6.07;;;3.28;;
83094;SDS011;72967;43.674;6.976;2024-01-30T08:47:08;5.47;;;4.03;;
83094;SDS011;72967;43.674;6.976;2024-01-30T08:49:34;5.45;;;3.05;;
83094;SDS011;72967;43.674;6.976;2024-01-30T08:51:59;6.82;;;3.95;;
83094;SDS011;72967;43.674;6.976;2024-01-30T08:54:24;5.22;;;2.72;;
83094;SDS011;72967;43.674;6.976;2024-01-30T08:56:50;6.38;;;3.25;;
83094;SDS011;72967;43.674;6.976;2024-01-30T08:59:17;6.70;;;3.40;;
83094;SDS011;72967;43.674;6.976;2024-01-30T09:01:42;4.80;;;2.88;;
83094;SDS011;72967;43.674;6.976;2024-01-30T09:04:08;6.57;;;3.03;;
83094;SDS011;72967;43.674;6.976;2024-01-30T09:06:33;10.45;;;3.05;;
83094;SDS011;72967;43.674;6.976;2024-01-30T09:08:59;7.22;;;3.35;;
83094;SDS011;72967;43.674;6.976;2024-01-30T09:11:24;9.75;;;5.30;;
83094;SDS011;72967;43.674;6.976;2024-01-30T09:13:49;15.88;;;6.80;;
83094;SDS011;72967;43.674;6.976;2024-01-30T09:16:15;8.13;;;4.45;;
83094;SDS011;72967;43.674;6.976;2024-01-30T09:18:41;6.07;;;3.92;;
83094;SDS011;72967;43.674;6.976;2024-01-30T09:21:07;7.72;;;3.97;;
83094;SDS011;72967;43.674;6.976;2024-01-30T09:23:32;13.25;;;5.70;;
83094;SDS011;72967;43.674;6.976;2024-01-30T09:25:58;9.68;;;5.28;;
83094;SDS011;72967;43.674;6.976;2024-01-30T09:28:24;11.45;;;5.05;;
83094;SDS011;72967;43.674;6.976;2024-01-30T09:30:49;17.20;;;7.45;;
83094;SDS011;72967;43.674;6.976;2024-01-30T09:33:15;14.40;;;6.85;;
83094;SDS011;72967;43.674;6.976;2024-01-30T09:35:40;12.70;;;6.70;;
83094;SDS011;72967;43.674;6.976;2024-01-30T09:38:06;13.30;;;6.15;;
83094;SDS011;72967;43.674;6.976;2024-01-30T09:40:31;15.73;;;6.40;;
83094;SDS011;72967;43.674;6.976;2024-01-30T09:42:56;8.75;;;5.35;;
83094;SDS011;72967;43.674;6.976;2024-01-30T09:45:25;9.90;;;4.65;;
83094;SDS011;72967;43.674;6.976;2024-01-30T09:47:51;9.35;;;5.35;;
83094;SDS011;72967;43.674;6.976;2024-01-30T09:50:17;11.02;;;5.93;;
83094;SDS011;72967;43.674;6.976;2024-01-30T09:52:46;10.27;;;4.60;;
83094;SDS011;72967;43.674;6.976;2024-01-30T09:55:12;12.40;;;5.28;;
83094;SDS011;72967;43.674;6.976;2024-01-30T09:57:38;11.45;;;5.35;;
83094;SDS011;72967;43.674;6.976;2024-01-30T10:00:04;11.57;;;5.43;;
83094;SDS011;72967;43.674;6.976;2024-01-30T10:02:33;10.48;;;5.38;;
83094;SDS011;72967;43.674;6.976;2024-01-30T10:05:00;7.97;;;4.80;;
83094;SDS011;72967;43.674;6.976;2024-01-30T10:07:26;9.88;;;4.60;;
83094;SDS011;72967;43.674;6.976;2024-01-30T10:09:52;5.75;;;4.30;;
83094;SDS011;72967;43.674;6.976;2024-01-30T10:12:19;6.05;;;4.28;;
83094;SDS011;72967;43.674;6.976;2024-01-30T10:14:44;7.30;;;4.00;;
83094;SDS011;72967;43.674;6.976;2024-01-30T10:17:10;7.15;;;4.57;;
83094;SDS011;72967;43.674;6.976;2024-01-30T10:19:39;11.32;;;4.43;;
83094;SDS011;72967;43.674;6.976;2024-01-30T10:22:05;7.82;;;4.50;;
83094;SDS011;72967;43.674;6.976;2024-01-30T10:24:32;6.32;;;4.15;;
83094;SDS011;72967;43.674;6.976;2024-01-30T10:26:59;7.50;;;4.20;;
83094;SDS011;72967;43.674;6.976;2024-01-30T10:29:25;7.53;;;4.68;;
83094;SDS011;72967;43.674;6.976;2024-01-30T10:32:03;11.95;;;4.47;;
83094;SDS011;72967;43.674;6.976;2024-01-30T10:34:30;5.68;;;4.00;;
83094;SDS011;72967;43.674;6.976;2024-01-30T10:37:07;5.68;;;4.15;;
83094;SDS011;72967;43.674;6.976;2024-01-30T10:39:43;7.63;;;4.35;;
83094;SDS011;72967;43.674;6.976;2024-01-30T10:42:13;6.20;;;4.40;;
83094;SDS011;72967;43.674;6.976;2024-01-30T10:47:52;7.28;;;4.65;;
83094;SDS011;72967;43.674;6.976;2024-01-30T10:50:19;5.60;;;4.07;;
83094;SDS011;72967;43.674;6.976;2024-01-30T10:52:45;7.20;;;4.28;;
83094;SDS011;72967;43.674;6.976;2024-01-30T10:55:12;5.57;;;3.80;;
83094;SDS011;72967;43.674;6.976;2024-01-30T10:57:40;5.70;;;3.97;;
83094;SDS011;72967;43.674;6.976;2024-01-30T11:00:10;8.13;;;4.85;;
83094;SDS011;72967;43.674;6.976;2024-01-30T11:02:38;8.82;;;5.30;;
83094;SDS011;72967;43.674;6.976;2024-01-30T11:05:05;9.88;;;4.75;;
83094;SDS011;72967;43.674;6.976;2024-01-30T11:07:31;10.10;;;5.78;;
83094;SDS011;72967;43.674;6.976;2024-01-30T11:10:00;5.53;;;4.00;;
83094;SDS011;72967;43.674;6.976;2024-01-30T11:12:29;5.05;;;3.75;;
83094;SDS011;72967;43.674;6.976;2024-01-30T11:17:53;6.38;;;4.40;;
83094;SDS011;72967;43.674;6.976;2024-01-30T11:20:25;5.68;;;3.80;;
83094;SDS011;72967;43.674;6.976;2024-01-30T11:22:52;5.88;;;3.63;;
83094;SDS011;72967;43.674;6.976;2024-01-30T11:25:20;4.85;;;3.40;;
83094;SDS011;72967;43.674;6.976;2024-01-30T11:27:49;5.47;;;3.70;;
83094;SDS011;72967;43.674;6.976;2024-01-30T11:30:25;5.65;;;3.50;;
83094;SDS011;72967;43.674;6.976;2024-01-30T11:33:08;8.30;;;4.07;;
83094;SDS011;72967;43.674;6.976;2024-01-30T11:35:34;6.97;;;3.47;;
83094;SDS011;72967;43.674;6.976;2024-01-30T11:38:01;6.75;;;3.53;;
83094;SDS011;72967;43.674;6.976;2024-01-30T11:40:28;4.13;;;3.03;;
83094;SDS011;72967;43.674;6.976;2024-01-30T11:42:55;5.80;;;3.00;;
83094;SDS011;72967;43.674;6.976;2024-01-30T11:45:21;6.10;;;3.35;;
83094;SDS011;72967;43.674;6.976;2024-01-30T11:47:47;9.95;;;3.67;;
83094;SDS011;72967;43.674;6.976;2024-01-30T11:50:12;5.68;;;3.25;;
83094;SDS011;72967;43.674;6.976;2024-01-30T11:52:38;5.07;;;3.65;;
83094;SDS011;72967;43.674;6.976;2024-01-30T11:55:04;7.18;;;4.22;;
83094;SDS011;72967;43.674;6.976;2024-01-30T11:57:30;5.95;;;3.72;;
83094;SDS011;72967;43.674;6.976;2024-01-30T11:59:56;5.70;;;3.65;;
83094;SDS011;72967;43.674;6.976;2024-01-30T12:02:21;9.40;;;5.70;;
83094;SDS011;72967;43.674;6.976;2024-01-30T12:04:47;7.15;;;3.70;;
83094;SDS011;72967;43.674;6.976;2024-01-30T12:07:12;6.70;;;4.53;;
83094;SDS011;72967;43.674;6.976;2024-01-30T12:09:41;5.93;;;4.10;;
83094;SDS011;72967;43.674;6.976;2024-01-30T12:12:07;5.95;;;4.07;;
83094;SDS011;72967;43.674;6.976;2024-01-30T12:14:37;6.78;;;4.03;;
83094;SDS011;72967;43.674;6.976;2024-01-30T12:17:04;6.95;;;4.70;;
83094;SDS011;72967;43.674;6.976;2024-01-30T12:19:30;7.28;;;5.03;;
83094;SDS011;72967;43.674;6.976;2024-01-30T12:21:56;9.32;;;5.90;;
83094;SDS011;72967;43.674;6.976;2024-01-30T12:24:23;13.27;;;5.55;;
83094;SDS011;72967;43.674;6.976;2024-01-30T12:26:50;7.38;;;4.78;;
83094;SDS011;72967;43.674;6.976;2024-01-30T12:29:16;8.60;;;5.22;;
83094;SDS011;72967;43.674;6.976;2024-01-30T12:31:41;6.40;;;4.75;;
83094;SDS011;72967;43.674;6.976;2024-01-30T12:34:07;7.45;;;5.72;;
83094;SDS011;72967;43.674;6.976;2024-01-30T12:36:33;8.98;;;6.13;;
83094;SDS011;72967;43.674;6.976;2024-01-30T12:38:59;10.15;;;5.28;;
83094;SDS011;72967;43.674;6.976;2024-01-30T12:41:25;8.80;;;5.18;;
83094;SDS011;72967;43.674;6.976;2024-01-30T12:43:54;6.95;;;4.65;;
83094;SDS011;72967;43.674;6.976;2024-01-30T12:46:24;7.30;;;5.03;;
83094;SDS011;72967;43.674;6.976;2024-01-30T12:48:53;7.90;;;5.28;;
83094;SDS011;72967;43.674;6.976;2024-01-30T12:51:19;8.85;;;5.45;;
83094;SDS011;72967;43.674;6.976;2024-01-30T12:53:44;8.15;;;5.55;;
83094;SDS011;72967;43.674;6.976;2024-01-30T12:56:11;8.93;;;6.30;;
83094;SDS011;72967;43.674;6.976;2024-01-30T12:58:37;6.50;;;5.40;;
83094;SDS011;72967;43.674;6.976;2024-01-30T13:01:02;7.70;;;5.40;;
83094;SDS011;72967;43.674;6.976;2024-01-30T13:03:28;7.50;;;5.13;;
83094;SDS011;72967;43.674;6.976;2024-01-30T13:05:53;7.15;;;5.25;;
83094;SDS011;72967;43.674;6.976;2024-01-30T13:08:19;6.30;;;5.00;;
83094;SDS011;72967;43.674;6.976;2024-01-30T13:10:45;6.38;;;4.63;;
83094;SDS011;72967;43.674;6.976;2024-01-30T13:13:10;6.55;;;4.78;;
83094;SDS011;72967;43.674;6.976;2024-01-30T13:15:35;7.95;;;4.88;;
83094;SDS011;72967;43.674;6.976;2024-01-30T13:18:01;6.00;;;4.75;;
83094;SDS011;72967;43.674;6.976;2024-01-30T13:20:27;6.40;;;4.43;;
83094;SDS011;72967;43.674;6.976;2024-01-30T13:22:52;9.02;;;4.55;;
83094;SDS011;72967;43.674;6.976;2024-01-30T13:25:18;7.20;;;5.10;;
83094;SDS011;72967;43.674;6.976;2024-01-30T13:27:44;7.35;;;4.75;;
83094;SDS011;72967;43.674;6.976;2024-01-30T13:30:09;8.25;;;5.32;;
83094;SDS011;72967;43.674;6.976;2024-01-30T13:32:35;9.13;;;4.35;;
83094;SDS011;72967;43.674;6.976;2024-01-30T13:35:01;7.60;;;4.75;;
83094;SDS011;72967;43.674;6.976;2024-01-30T13:37:26;8.35;;;4.45;;
83094;SDS011;72967;43.674;6.976;2024-01-30T13:39:52;7.32;;;4.30;;
83094;SDS011;72967;43.674;6.976;2024-01-30T13:42:17;9.77;;;5.07;;
83094;SDS011;72967;43.674;6.976;2024-01-30T13:44:44;6.78;;;4.18;;
83094;SDS011;72967;43.674;6.976;2024-01-30T13:47:09;7.38;;;4.72;;
83094;SDS011;72967;43.674;6.976;2024-01-30T13:49:35;12.65;;;5.43;;
83094;SDS011;72967;43.674;6.976;2024-01-30T13:52:01;7.75;;;4.47;;
83094;SDS011;72967;43.674;6.976;2024-01-30T13:54:27;6.25;;;4.22;;
83094;SDS011;72967;43.674;6.976;2024-01-30T13:56:53;6.20;;;4.40;;
83094;SDS011;72967;43.674;6.976;2024-01-30T13:59:19;7.72;;;4.75;;
83094;SDS011;72967;43.674;6.976;2024-01-30T14:01:48;6.65;;;4.45;;
83094;SDS011;72967;43.674;6.976;2024-01-30T14:04:14;7.07;;;4.75;;
83094;SDS011;72967;43.674;6.976;2024-01-30T14:06:40;8.35;;;4.53;;
83094;SDS011;72967;43.674;6.976;2024-01-30T14:09:05;6.88;;;4.50;;
83094;SDS011;72967;43.674;6.976;2024-01-30T14:11:31;7.00;;;4.07;;
83094;SDS011;72967;43.674;6.976;2024-01-30T14:13:56;5.80;;;4.40;;
83094;SDS011;72967;43.674;6.976;2024-01-30T14:16:22;6.85;;;4.93;;
83094;SDS011;72967;43.674;6.976;2024-01-30T14:18:49;6.22;;;4.40;;
83094;SDS011;72967;43.674;6.976;2024-01-30T14:21:15;6.35;;;4.40;;
83094;SDS011;72967;43.674;6.976;2024-01-30T14:23:40;8.50;;;3.55;;
83094;SDS011;72967;43.674;6.976;2024-01-30T14:26:05;6.10;;;4.53;;
83094;SDS011;72967;43.674;6.976;2024-01-30T14:28:31;5.90;;;4.38;;
83094;SDS011;72967;43.674;6.976;2024-01-30T14:30:56;5.63;;;4.22;;
83094;SDS011;72967;43.674;6.976;2024-01-30T14:33:22;5.60;;;4.00;;
83094;SDS011;72967;43.674;6.976;2024-01-30T14:35:47;6.82;;;4.03;;
83094;SDS011;72967;43.674;6.976;2024-01-30T14:38:13;6.63;;;4.03;;
83094;SDS011;72967;43.674;6.976;2024-01-30T14:40:39;5.03;;;3.60;;
83094;SDS011;72967;43.674;6.976;2024-01-30T14:43:04;6.13;;;3.50;;
83094;SDS011;72967;43.674;6.976;2024-01-30T14:45:30;4.55;;;3.75;;
83094;SDS011;72967;43.674;6.976;2024-01-30T14:47:57;5.40;;;3.40;;